METAR AND TAF INFORMATION
METAR FOR EHAM
EHAM 211525Z 28006KT 250V310 9999 -DZ FEW007 SCT040 17/15 Q1011 NOSIG
EHAM 211455Z 29007KT 9999 -DZRA FEW007 BKN033 17/15 Q1011 NOSIG
EHAM 211425Z 31007KT 280V340 9999 -DZRA FEW020 BKN036 18/16 Q1011 NOSIG
EHAM 211355Z 30007KT 280V350 9999 -RA FEW018 17/16 Q1011 NOSIG
EHAM 211325Z 30007KT 290V350 9999 -RA FEW038 BKN040 17/15 Q1011 NOSIG
EHAM 211255Z 33006KT 270V350 9999 -RA FEW035 BKN040 18/14 Q1011 NOSIG
EHAM 211225Z 33006KT 310V010 9999 -RA FEW035 BKN042 19/14 Q1012 NOSIG

TAF EHAM 211109Z 2112/2218 33007KT 9999 SCT045
PROB40
TEMPO 2112/2116 6000 SHRA RA BKN020 SCT050CB
BECMG 2117/2120 22007KT
BECMG 2204/2207 25012KT
PROB30
TEMPO 2211/2215 -RA -SHRA FEW018TCU SCT020
BECMG 2215/2218 28006KT

 AIRPORT MAP

 RUNWAY INFORMATION
Runway 04 Runway length 6608 ft Runway width 148 ft
Runway elevation 0 ft Runway displaced threshold 0 ft Runway heading 41
Runway 22 Runway length 6608 ft Runway width 148 ft
Runway elevation 0 ft Runway displaced threshold 0 ft Runway heading 221
Runway 06 Runway length 11483 ft Runway width 148 ft
Runway elevation 0 ft Runway displaced threshold 820 ft Runway heading 58
Runway 24 Runway length 11483 ft Runway width 148 ft
Runway elevation 0 ft Runway displaced threshold 0 ft Runway heading 238
Runway 09 Runway length 11329 ft Runway width 148 ft
Runway elevation 0 ft Runway displaced threshold 294 ft Runway heading 87
Runway 27 Runway length 11329 ft Runway width 148 ft
Runway elevation 0 ft Runway displaced threshold 0 ft Runway heading 267
Runway 18C Runway length 10826 ft Runway width 148 ft
Runway elevation 0 ft Runway displaced threshold 0 ft Runway heading 183
Runway 36C Runway length 10826 ft Runway width 148 ft
Runway elevation 0 ft Runway displaced threshold 1476 ft Runway heading 3
Runway 18L Runway length 11155 ft Runway width 148 ft
Runway elevation 0 ft Runway displaced threshold 1887 ft Runway heading 183
Runway 36R Runway length 11155 ft Runway width 148 ft
Runway elevation 0 ft Runway displaced threshold 0 ft Runway heading 3
Runway 18R Runway length 12467 ft Runway width 198 ft
Runway elevation 0 ft Runway displaced threshold 886 ft Runway heading 183
Runway 36L Runway length 12467 ft Runway width 198 ft
Runway elevation 0 ft Runway displaced threshold 0 ft Runway heading 3

 AIRPORT FREQUENCIES
Type APP Name APP/DEP Frequency 119.05 MHZ
Type ARR Name ARR Frequency 118.4 MHZ
Type ATIS Name ATIS Frequency 108.4 MHZ
Type CLD Name CLNC DEL Frequency 121.975 MHZ
Type GND Name GND Frequency 121.7 MHZ
Type TWR Name TWR Frequency 119.225 MHZ

 AIRPORT NEAR NAVIGATION AIDS
Type VOR-DME Name Schiphol Frequency 108400 KHZ
Type VOR-DME Name Spijkerboor Frequency 113300 KHZ

-